Flushing, NY (11366)

4:40 PM EDT on July 29, 2016 (GMT -0400)
Fresh Meadows | | Change Station

Elev 62 ft 40.75 °N, 73.78 °W | Updated 8 seconds ago

Partly Cloudy
Partly Cloudy
81.3 °F
Feels Like 83 °F
N
0.0
Wind Variable Wind from NE

Today
High -- | Low -- °F
--% Chance of Precip.
Yesterday
High -- | Low -- °F
Precip. -- in
Pressure 29.83 in
Visibility 10.0 miles
Clouds Few 2700 ft
Few 5000 ft
Heat Index 83 °F
Dew Point 66 °F
Humidity 59%
Rainfall 0.77 in
Snow Depth Not available.
5:49 AM 8:13 PM
Waning Crescent, 19% visible
METAR KLGA 291951Z 05007KT 10SM FEW027 FEW050 28/20 A2983 RMK AO2 SLP102 T02830200
Pressure 29.83 in
Visibility 10.0 miles
Clouds Few 2700 ft
Few 5000 ft
Heat Index 83 °F
Dew Point 66 °F
Humidity 59%
Rainfall 0.77 in
Snow Depth Not available.
5:49 AM 8:13 PM
Waning Crescent, 19% visible
METAR KLGA 291951Z 05007KT 10SM FEW027 FEW050 28/20 A2983 RMK AO2 SLP102 T02830200

10-Day Weather Forecast

Almanac

Astronomy

Jul. 29, 2016 Rise Set
Actual Time
Civil Twilight
Nautical Twilight
Astronomical Twilight
Moon
Length of Visible Light
Length of Day
Tomorrow will be .
, % of the Moon is Illuminated

Today's Extremes

State Highs State Lows

Community

WunderPhotos

Upload Photos

1,928,407 photos uploaded!

WunderBlog® & News

Nearby

Air Quality

  Air Quality AQ Index Pollutant
Not available.

Snow Depth

Station Depth Elevation

Earthquake Activity

City Distance Mag. Time & Date
Minimum magnitude displayed is 2.5.

Coastal Water Temperatures

Place Temperature

Stations

Nearby Weather Stations

Station Location Temp. Windchill Dew Point Humidity Wind Precip. Elev Updated Type
                   

Watches & Warnings

There are currently no watches in effect.